Date,TemperatureHighF,TemperatureAvgF,TemperatureLowF,DewpointHighF,DewpointAvgF,DewpointLowF,HumidityHigh,HumidityAvg,HumidityLow,PressureMaxIn,PressureMinIn,WindSpeedMaxMPH,WindSpeedAvgMPH,GustSpeedMaxMPH,PrecipitationSumIn
2013-2-1,48,37,32,-100,-100,-100,0,0,100,0.00,40.00,0,-999,0,0.00
2013-2-2,44,36,31,-100,-100,-100,0,0,100,0.00,40.00,0,-999,0,0.00
2013-2-3,43,34,28,-100,-100,-100,0,0,100,0.00,40.00,0,-999,0,0.00
2013-2-4,49,37,28,-100,-100,-100,0,0,100,0.00,40.00,0,-999,0,0.00
2013-2-5,42,34,26,-100,-100,-100,0,0,100,0.00,40.00,0,-999,0,0.00
2013-2-6,42,30,20,-100,-100,-100,0,0,100,0.00,40.00,0,-999,0,0.00
2013-2-7,29,24,13,-100,-100,-100,0,0,100,0.00,40.00,0,-999,0,0.00
2013-2-8,21,14,8,-100,-100,-100,0,0,100,0.00,40.00,0,-999,0,0.00
2013-2-9,29,19,8,-100,-100,-100,0,0,100,0.00,40.00,0,-999,0,0.01
2013-2-10,27,21,18,-100,-100,-100,0,0,100,0.00,40.00,0,-999,0,0.01
2013-2-11,30,22,15,-100,-100,-100,0,0,100,0.00,40.00,0,-999,0,0.00
2013-2-12,40,29,20,-100,-100,-100,0,0,100,0.00,40.00,0,-999,0,0.00
2013-2-13,39,29,24,-100,-100,-100,0,0,100,0.00,40.00,0,-999,0,0.00
2013-2-14,41,32,27,-100,-100,-100,0,0,100,0.00,40.00,0,-999,0,0.00
2013-2-15,49,37,30,-100,-100,-100,0,0,100,0.00,40.00,0,-999,0,0.00
2013-2-16,44,35,28,-100,-100,-100,0,0,100,0.00,40.00,0,-999,0,0.00
2013-2-17,41,32,25,-100,-100,-100,0,0,100,0.00,40.00,0,-999,0,0.00
2013-2-18,41,31,26,-100,-100,-100,0,0,100,0.00,40.00,0,-999,0,0.00
2013-2-19,26,19,12,-100,-100,-100,0,0,100,0.00,40.00,0,-999,0,0.00
2013-2-20,28,19,14,-100,-100,-100,0,0,100,0.00,40.00,0,-999,0,0.01
2013-2-21,27,18,13,-100,-100,-100,0,0,100,0.00,40.00,0,-999,0,0.01
2013-2-22,38,30,19,-100,-100,-100,0,0,100,0.00,40.00,0,-999,0,0.01
2013-2-23,30,26,22,-100,-100,-100,0,0,100,0.00,40.00,0,-999,0,0.00
2013-2-25,28,24,22,-100,-100,-100,0,0,100,0.00,40.00,0,-999,0,0.00
2013-2-26,36,27,16,-100,-100,-100,0,0,100,0.00,40.00,0,-999,0,0.00
2013-2-27,42,28,22,-100,-100,-100,0,0,100,0.00,40.00,0,-999,0,0.00
2013-2-28,45,32,26,-100,-100,-100,0,0,100,0.00,40.00,0,-999,0,0.00